Time;durP1;ratioP1;P1;durP2;ratioP2;P2;SDS_P1;SDS_P2;PMS_P1;PMS_P2;Temp;Humidity;BMP_temperature;BMP_pressure;BME280_temperature;BME280_humidity;BME280_pressure;Samples;Min_cycle;Max_cycle;Signal;HPM_P1;HPM_P2
2022/08/01 00:01:38;;;;;;;18.88;7.78;;;18.00;99.90;;;;;;4954785;28;20066;-79
2022/08/01 00:04:04;;;;;;;16.50;7.45;;;18.00;99.90;;;;;;4959031;28;20045;-79
2022/08/01 00:06:30;;;;;;;16.08;7.70;;;18.00;99.90;;;;;;4957720;28;20043;-79
2022/08/01 00:08:55;;;;;;;16.23;8.07;;;18.00;99.90;;;;;;4957879;28;20078;-79
2022/08/01 00:11:21;;;;;;;17.88;8.32;;;17.90;99.90;;;;;;4959489;28;20526;-79
2022/08/01 00:13:47;;;;;;;16.98;8.15;;;18.00;99.90;;;;;;4955772;28;20128;-78
2022/08/01 00:16:13;;;;;;;15.52;7.15;;;18.00;99.90;;;;;;4956034;28;20118;-78
2022/08/01 00:18:38;;;;;;;16.83;7.68;;;18.00;99.90;;;;;;4940046;28;20141;-78
2022/08/01 00:21:04;;;;;;;17.40;6.78;;;17.90;99.90;;;;;;4952779;28;20046;-78
2022/08/01 00:23:30;;;;;;;11.48;7.55;;;17.90;99.90;;;;;;4938459;29;20043;-78
2022/08/01 00:25:56;;;;;;;13.32;7.10;;;17.90;99.90;;;;;;4940640;28;20046;-78
2022/08/01 00:28:22;;;;;;;15.07;7.47;;;17.90;99.90;;;;;;4933303;28;20035;-78
2022/08/01 00:30:48;;;;;;;9.25;6.45;;;18.00;99.90;;;;;;4940522;28;20400;-78
2022/08/01 00:33:13;;;;;;;15.95;6.95;;;17.90;99.90;;;;;;4943330;29;20043;-78
2022/08/01 00:35:39;;;;;;;8.80;5.95;;;17.90;99.90;;;;;;4938136;29;20039;-78
2022/08/01 00:38:04;;;;;;;12.45;5.97;;;17.90;99.90;;;;;;4937892;29;20039;-78
2022/08/01 00:40:30;;;;;;;9.63;5.93;;;17.90;99.90;;;;;;4948257;28;20039;-78
2022/08/01 00:42:56;;;;;;;8.23;5.63;;;17.90;99.90;;;;;;4953871;28;20534;-78
2022/08/01 00:45:21;;;;;;;10.60;5.88;;;17.80;99.90;;;;;;4955746;28;20046;-78
2022/08/01 00:47:47;;;;;;;11.73;5.88;;;17.80;99.90;;;;;;4930480;29;20054;-78
2022/08/01 00:50:12;;;;;;;11.82;6.28;;;17.80;99.90;;;;;;4946841;28;20041;-78
2022/08/01 00:52:40;;;;;;;12.85;6.35;;;17.80;99.90;;;;;;4953465;28;20086;-78
2022/08/01 00:55:05;;;;;;;9.95;6.03;;;17.80;99.90;;;;;;4956227;28;20035;-78
2022/08/01 00:57:32;;;;;;;12.23;6.60;;;17.80;99.90;;;;;;4948405;29;20567;-78
2022/08/01 00:59:57;;;;;;;12.75;6.43;;;17.80;99.90;;;;;;4954256;28;20031;-78
2022/08/01 01:02:23;;;;;;;12.95;5.65;;;17.80;99.90;;;;;;4941433;29;20098;-78
2022/08/01 01:04:49;;;;;;;9.20;5.93;;;17.80;99.90;;;;;;4931106;28;20451;-78
2022/08/01 01:07:25;;;;;;;9.05;6.65;;;17.80;99.90;;;;;;4934081;29;20141;-78
2022/08/01 01:10:23;;;;;;;8.50;6.03;;;17.80;99.90;;;;;;4955769;28;20326;-77
2022/08/01 01:13:07;;;;;;;9.40;5.85;;;17.80;99.90;;;;;;4919114;28;20063;-77
2022/08/01 01:15:41;;;;;;;11.15;6.20;;;17.80;99.90;;;;;;4958047;28;20046;-77
2022/08/01 01:18:12;;;;;;;10.98;6.07;;;17.70;99.90;;;;;;4960551;28;20042;-77
2022/08/01 01:20:45;;;;;;;9.95;5.65;;;17.70;99.90;;;;;;4953193;29;20392;-77
2022/08/01 01:23:11;;;;;;;;;;;17.70;99.90;;;;;;4953709;28;20435;-77
2022/08/01 01:26:09;;;;;;;7.80;4.93;;;17.80;99.90;;;;;;4953356;29;19922;-77
2022/08/01 01:29:04;;;;;;;10.63;5.72;;;17.70;99.90;;;;;;4953277;28;20050;-77
2022/08/01 01:31:38;;;;;;;9.63;5.80;;;17.80;99.90;;;;;;4932731;28;20065;-77
2022/08/01 01:34:05;;;;;;;13.85;5.80;;;17.70;99.90;;;;;;4960339;28;20061;-77
2022/08/01 01:36:32;;;;;;;9.55;6.05;;;17.70;99.90;;;;;;4955941;28;20047;-77
2022/08/01 01:38:59;;;;;;;10.60;5.88;;;17.70;99.90;;;;;;4955801;28;20045;-77
2022/08/01 01:41:27;;;;;;;9.45;6.38;;;17.70;99.90;;;;;;4939407;28;20035;-77
2022/08/01 01:43:53;;;;;;;7.95;6.07;;;17.70;99.90;;;;;;4954259;28;20027;-77
2022/08/01 01:46:23;;;;;;;16.40;6.55;;;17.80;99.90;;;;;;4952624;29;20035;-77
2022/08/01 01:48:50;;;;;;;9.27;6.05;;;17.70;99.90;;;;;;4952612;29;20624;-77
2022/08/01 01:51:16;;;;;;;17.08;7.60;;;17.70;99.90;;;;;;4952709;29;20562;-78
2022/08/01 01:53:43;;;;;;;19.35;8.18;;;17.70;99.90;;;;;;4953009;28;20038;-77
2022/08/01 01:56:11;;;;;;;14.98;7.38;;;17.70;99.90;;;;;;4950015;28;20122;-78
2022/08/01 01:58:39;;;;;;;15.45;7.78;;;17.70;99.90;;;;;;4930847;28;20043;-78
2022/08/01 02:01:06;;;;;;;23.65;8.10;;;17.70;99.90;;;;;;4955994;28;20054;-78
2022/08/01 02:03:36;;;;;;;16.08;7.03;;;17.80;99.90;;;;;;4939677;28;20043;-77
2022/08/01 02:06:03;;;;;;;15.57;7.32;;;17.80;99.90;;;;;;4955645;28;20499;-78
2022/08/01 02:08:30;;;;;;;12.98;7.88;;;17.80;99.90;;;;;;4953725;28;20150;-78
2022/08/01 02:13:43;;;;;;;13.02;7.50;;;17.80;99.90;;;;;;4950270;28;20057;-78
2022/08/01 02:16:11;;;;;;;24.85;7.70;;;17.70;99.90;;;;;;4950228;29;20046;-78
2022/08/01 02:18:37;;;;;;;20.75;8.13;;;17.70;99.90;;;;;;4936318;29;20055;-78
2022/08/01 02:21:05;;;;;;;9.73;7.45;;;17.70;99.90;;;;;;4955697;28;20039;-78
2022/08/01 02:23:35;;;;;;;9.70;7.10;;;17.80;99.90;;;;;;4960568;28;20447;-78
2022/08/01 02:26:04;;;;;;;8.57;6.15;;;17.70;99.90;;;;;;4954847;28;20034;-78
2022/08/01 02:28:34;;;;;;;6.90;5.90;;;17.70;99.90;;;;;;4938774;28;20058;-78
2022/08/01 02:31:04;;;;;;;10.90;5.07;;;17.60;99.90;;;;;;4952339;28;20031;-78
2022/08/01 02:33:43;;;;;;;5.13;4.43;;;17.50;99.90;;;;;;4945438;28;20072;-78
2022/08/01 02:36:12;;;;;;;5.80;4.43;;;17.60;99.90;;;;;;4955735;28;20085;-79
2022/08/01 02:38:43;;;;;;;7.00;4.90;;;17.50;99.90;;;;;;4954869;28;20062;-79
2022/08/01 02:41:12;;;;;;;5.78;4.50;;;17.50;99.90;;;;;;4959012;28;20506;-80
2022/08/01 02:43:43;;;;;;;7.90;4.32;;;17.50;99.90;;;;;;4936261;29;20043;-80
2022/08/01 02:46:16;;;;;;;5.32;3.88;;;17.50;99.90;;;;;;4953434;28;20069;-80
2022/08/01 02:48:43;;;;;;;7.13;4.32;;;17.50;99.90;;;;;;4931700;28;20078;-80
2022/08/01 02:51:11;;;;;;;5.50;4.55;;;17.50;99.90;;;;;;4949693;28;20039;-80
2022/08/01 02:53:40;;;;;;;6.65;4.75;;;17.40;99.90;;;;;;4937539;28;20784;-80
2022/08/01 02:56:08;;;;;;;6.78;4.78;;;17.50;99.90;;;;;;4940678;28;20045;-79
2022/08/01 02:58:36;;;;;;;6.72;4.03;;;17.40;99.90;;;;;;4936404;29;20043;-79
2022/08/01 03:01:04;;;;;;;7.28;4.70;;;17.40;99.90;;;;;;4952280;29;20086;-79
2022/08/01 03:03:30;;;;;;;13.32;5.60;;;17.40;99.90;;;;;;4944616;28;20039;-79
2022/08/01 03:05:57;;;;;;;7.07;4.32;;;17.40;99.90;;;;;;4954858;28;20049;-80
2022/08/01 03:08:24;;;;;;;7.53;5.03;;;17.40;99.90;;;;;;4924353;29;20428;-80
2022/08/01 03:10:53;;;;;;;11.02;5.35;;;17.40;99.90;;;;;;4937960;28;20042;-80
2022/08/01 03:13:21;;;;;;;12.10;5.90;;;17.40;99.90;;;;;;4947488;28;20043;-80
2022/08/01 03:15:48;;;;;;;8.38;5.30;;;17.40;99.90;;;;;;4938494;28;20130;-80
2022/08/01 03:18:15;;;;;;;16.42;6.10;;;17.40;99.90;;;;;;4939206;28;20039;-80
2022/08/01 03:20:42;;;;;;;8.45;5.85;;;17.40;99.90;;;;;;4938244;28;20070;-80
2022/08/01 03:23:11;;;;;;;7.03;5.50;;;17.40;99.90;;;;;;4954522;28;20114;-80
2022/08/01 03:25:40;;;;;;;8.23;5.80;;;17.40;99.90;;;;;;4940723;28;20041;-80
2022/08/01 03:28:07;;;;;;;7.25;5.47;;;17.40;99.90;;;;;;4940406;28;20133;-79
2022/08/01 03:30:36;;;;;;;9.07;5.00;;;17.40;99.90;;;;;;4946381;29;20451;-79
2022/08/01 03:33:01;;;;;;;9.60;4.88;;;17.30;99.90;;;;;;4936062;29;20043;-79
2022/08/01 03:35:33;;;;;;;13.05;4.97;;;17.30;99.90;;;;;;4950821;28;20034;-80
2022/08/01 03:38:00;;;;;;;5.38;4.25;;;17.30;99.90;;;;;;4934324;28;20039;-80
2022/08/01 03:40:39;;;;;;;5.38;3.60;;;17.30;99.90;;;;;;4958493;28;20511;-79
2022/08/01 03:43:20;;;;;;;5.55;3.53;;;17.20;99.90;;;;;;4944556;28;20035;-79
2022/08/01 03:45:50;;;;;;;4.90;3.17;;;17.20;99.90;;;;;;4940490;29;20118;-79
2022/08/01 03:48:26;;;;;;;6.65;3.90;;;17.10;99.90;;;;;;4955774;28;20042;-80
2022/08/01 03:50:52;;;;;;;7.88;4.00;;;17.10;99.90;;;;;;4941612;28;20034;-79
2022/08/01 03:53:28;;;;;;;5.13;3.65;;;17.10;99.90;;;;;;4956480;28;20039;-79
2022/08/01 03:55:55;;;;;;;4.88;3.17;;;17.10;99.90;;;;;;4947188;28;20436;-79
2022/08/01 03:58:22;;;;;;;7.70;3.65;;;17.10;99.90;;;;;;4938776;29;20520;-79
2022/08/01 04:00:48;;;;;;;6.55;3.20;;;17.10;99.90;;;;;;4938736;29;20500;-79
2022/08/01 04:03:14;;;;;;;5.88;3.20;;;17.00;99.90;;;;;;4928512;28;20149;-79
2022/08/01 04:05:43;;;;;;;5.47;3.20;;;17.00;99.90;;;;;;4957096;28;20546;-79
2022/08/01 04:08:09;;;;;;;3.53;2.83;;;17.00;99.90;;;;;;4956292;28;20043;-79
2022/08/01 04:10:36;;;;;;;4.53;3.00;;;17.00;99.90;;;;;;4943337;28;20049;-79
2022/08/01 04:13:02;;;;;;;6.78;3.55;;;16.90;99.90;;;;;;4938629;29;20039;-78
2022/08/01 04:15:28;;;;;;;5.88;3.30;;;16.90;99.90;;;;;;4938760;29;20035;-78
2022/08/01 04:17:53;;;;;;;4.60;3.13;;;16.90;99.90;;;;;;4950866;28;20454;-79
2022/08/01 04:20:20;;;;;;;4.63;3.10;;;16.90;99.90;;;;;;4951066;29;20515;-79
2022/08/01 04:22:45;;;;;;;7.72;2.90;;;16.90;99.90;;;;;;4956982;28;20039;-78
2022/08/01 04:25:15;;;;;;;7.22;3.25;;;16.90;99.90;;;;;;4941616;28;20054;-79
2022/08/01 04:27:46;;;;;;;4.63;3.20;;;16.80;99.90;;;;;;4940667;28;20042;-79
2022/08/01 04:30:12;;;;;;;4.93;3.42;;;16.90;99.90;;;;;;4941120;28;20054;-79
2022/08/01 04:32:41;;;;;;;4.25;2.97;;;16.80;99.90;;;;;;4958564;28;20503;-79
2022/08/01 04:35:12;;;;;;;4.38;3.17;;;16.80;99.90;;;;;;4955580;28;20240;-79
2022/08/01 04:37:40;;;;;;;4.85;3.05;;;16.80;99.90;;;;;;4972452;28;20389;-78
2022/08/01 04:40:07;;;;;;;3.97;2.95;;;16.80;99.90;;;;;;4950696;28;20491;-78
2022/08/01 04:42:33;;;;;;;5.15;3.10;;;16.80;99.90;;;;;;4956256;28;20129;-78
2022/08/01 04:44:58;;;;;;;6.72;3.17;;;16.80;99.90;;;;;;4957088;28;20039;-79
2022/08/01 04:47:26;;;;;;;4.43;3.13;;;16.80;99.90;;;;;;4933246;29;20054;-79
2022/08/01 04:49:52;;;;;;;5.80;3.33;;;16.90;99.90;;;;;;4956036;28;20118;-79
2022/08/01 04:52:18;;;;;;;5.20;3.70;;;16.90;99.90;;;;;;4926524;29;20053;-79
2022/08/01 04:54:43;;;;;;;4.38;3.25;;;16.90;99.90;;;;;;4947180;28;20034;-79
2022/08/01 04:57:09;;;;;;;7.63;3.90;;;16.90;99.90;;;;;;4956470;28;20507;-78
2022/08/01 04:59:41;;;;;;;6.60;3.70;;;16.90;99.90;;;;;;4935284;28;20525;-79
2022/08/01 05:02:12;;;;;;;5.88;3.75;;;16.90;99.90;;;;;;4950700;28;20039;-79
2022/08/01 05:04:39;;;;;;;8.85;3.58;;;16.90;99.90;;;;;;4953063;28;20038;-79
2022/08/01 05:07:06;;;;;;;7.90;4.20;;;17.00;99.90;;;;;;4950818;28;20039;-79
2022/08/01 05:09:32;;;;;;;5.50;3.78;;;17.00;99.90;;;;;;4953902;28;20105;-79
2022/08/01 05:11:59;;;;;;;8.93;3.63;;;17.00;99.90;;;;;;4953374;28;20082;-87
2022/08/01 05:14:25;;;;;;;7.15;4.00;;;17.00;99.90;;;;;;4939062;28;20050;-80
2022/08/01 05:16:51;;;;;;;8.35;4.05;;;17.00;99.90;;;;;;4939512;28;20460;-79
2022/08/01 05:19:17;;;;;;;9.73;4.40;;;17.00;99.90;;;;;;4960785;28;20030;-79
2022/08/01 05:21:43;;;;;;;7.47;4.00;;;17.00;99.90;;;;;;4940229;28;20514;-79
2022/08/01 05:24:08;;;;;;;9.00;4.00;;;17.00;99.90;;;;;;4951019;29;20043;-80
2022/08/01 05:26:34;;;;;;;6.85;3.85;;;17.00;99.90;;;;;;4952096;28;20047;-80
2022/08/01 05:29:00;;;;;;;10.13;4.88;;;17.00;99.90;;;;;;4939494;28;20097;-79
2022/08/01 05:31:26;;;;;;;9.13;4.15;;;17.00;99.90;;;;;;4924871;29;20090;-81
2022/08/01 05:33:51;;;;;;;8.30;4.15;;;17.00;99.90;;;;;;4934115;28;20117;-80
2022/08/01 05:36:17;;;;;;;9.27;4.10;;;17.00;99.90;;;;;;4939440;28;20045;-80
2022/08/01 05:38:43;;;;;;;9.82;3.90;;;17.00;99.90;;;;;;4955927;28;20491;-79
2022/08/01 05:41:09;;;;;;;9.68;4.20;;;16.90;99.90;;;;;;4940256;28;20046;-79
2022/08/01 05:43:35;;;;;;;10.57;4.05;;;16.80;99.90;;;;;;4955468;28;20061;-79
2022/08/01 05:46:01;;;;;;;8.18;4.07;;;16.80;99.90;;;;;;4954156;28;20042;-79
2022/08/01 05:48:26;;;;;;;8.82;4.10;;;16.90;99.90;;;;;;4931837;28;20043;-80
2022/08/01 05:50:53;;;;;;;7.68;3.75;;;16.90;99.90;;;;;;4933614;28;20049;-82
2022/08/01 05:53:19;;;;;;;7.15;4.30;;;16.90;99.90;;;;;;4945208;28;20058;-82
2022/08/01 05:55:44;;;;;;;14.77;3.83;;;16.90;99.90;;;;;;4939561;28;20034;-82
2022/08/01 05:58:10;;;;;;;10.25;3.85;;;16.90;99.90;;;;;;4936387;28;20046;-82
2022/08/01 06:00:35;;;;;;;9.43;3.97;;;16.90;99.90;;;;;;4938305;28;20031;-82
2022/08/01 06:03:01;;;;;;;10.70;4.72;;;17.00;99.90;;;;;;4938069;29;20507;-82
2022/08/01 06:05:27;;;;;;;10.63;4.50;;;17.10;99.90;;;;;;4936219;28;20039;-81
2022/08/01 06:07:52;;;;;;;9.23;3.83;;;17.10;99.90;;;;;;4939545;28;20046;-82
2022/08/01 06:10:18;;;;;;;9.55;3.60;;;17.10;99.90;;;;;;4939889;28;20146;-82
2022/08/01 06:12:43;;;;;;;10.38;3.33;;;17.10;99.90;;;;;;4939799;28;20074;-83
2022/08/01 06:15:09;;;;;;;10.73;3.40;;;17.10;99.90;;;;;;4937753;28;20039;-81
2022/08/01 06:17:35;;;;;;;9.30;3.45;;;17.10;99.90;;;;;;4952364;29;20039;-81
2022/08/01 06:20:01;;;;;;;10.75;3.78;;;16.90;99.90;;;;;;4939759;28;20062;-83
2022/08/01 06:22:26;;;;;;;8.25;3.40;;;17.00;99.90;;;;;;4947536;28;20047;-82
2022/08/01 06:24:52;;;;;;;11.32;3.80;;;17.10;99.90;;;;;;4953874;28;20035;-81
2022/08/01 06:27:18;;;;;;;9.95;3.63;;;17.20;99.90;;;;;;4938436;28;20041;-81
2022/08/01 06:29:44;;;;;;;12.30;4.13;;;17.20;99.90;;;;;;4939661;28;20053;-82
2022/08/01 06:32:09;;;;;;;10.98;3.63;;;17.20;99.90;;;;;;4939438;28;20126;-82
2022/08/01 06:34:35;;;;;;;10.57;3.30;;;17.30;99.90;;;;;;4939761;28;20483;-82
2022/08/01 06:37:01;;;;;;;8.10;3.50;;;17.20;99.90;;;;;;4939160;28;20039;-82
2022/08/01 06:39:27;;;;;;;8.45;3.67;;;17.30;99.90;;;;;;4939610;28;20062;-82
2022/08/01 06:41:53;;;;;;;7.38;3.58;;;17.30;99.90;;;;;;4939602;28;20480;-81
2022/08/01 06:44:18;;;;;;;10.27;3.22;;;17.30;99.90;;;;;;4955679;28;20047;-83
2022/08/01 06:46:44;;;;;;;8.93;3.03;;;17.30;99.90;;;;;;4939768;28;20043;-83
2022/08/01 06:49:09;;;;;;;11.00;2.70;;;17.30;99.90;;;;;;4939560;28;20511;-82
2022/08/01 06:51:35;;;;;;;10.07;3.80;;;17.30;99.90;;;;;;4955381;28;20046;-83
2022/08/01 06:54:00;;;;;;;9.23;2.95;;;17.20;99.90;;;;;;4939466;28;20062;-82
2022/08/01 06:56:26;;;;;;;8.77;2.90;;;17.10;99.90;;;;;;4939995;28;20121;-82
2022/08/01 06:58:52;;;;;;;7.43;2.80;;;17.20;99.90;;;;;;4939533;28;20050;-82
2022/08/01 07:01:18;;;;;;;11.77;3.63;;;17.20;99.90;;;;;;4939446;28;20038;-81
2022/08/01 07:03:43;;;;;;;13.52;2.75;;;17.20;99.90;;;;;;4939325;28;20531;-81
2022/08/01 07:06:09;;;;;;;8.40;2.67;;;17.30;99.90;;;;;;4939421;28;20098;-81
2022/08/01 07:08:35;;;;;;;11.00;3.20;;;17.30;99.90;;;;;;4955055;28;20051;-81
2022/08/01 07:11:01;;;;;;;9.20;3.10;;;17.30;99.90;;;;;;4941200;28;20042;-81
2022/08/01 07:13:27;;;;;;;10.82;3.20;;;17.50;99.90;;;;;;4958759;28;20078;-82
2022/08/01 07:15:53;;;;;;;13.50;3.75;;;17.50;99.90;;;;;;4958931;28;20085;-83
2022/08/01 07:18:19;;;;;;;10.38;2.53;;;17.50;99.90;;;;;;4942890;28;20039;-83
2022/08/01 07:20:46;;;;;;;11.98;2.90;;;17.50;99.90;;;;;;4942762;28;20045;-82
2022/08/01 07:23:12;;;;;;;9.18;2.65;;;17.40;99.90;;;;;;4958865;28;20055;-83
2022/08/01 07:25:38;;;;;;;13.40;2.92;;;17.50;99.90;;;;;;4942775;28;20101;-81
2022/08/01 07:28:04;;;;;;;8.55;2.33;;;17.60;99.90;;;;;;4942696;28;20404;-83
2022/08/01 07:30:30;;;;;;;10.85;3.03;;;17.70;99.90;;;;;;4942764;28;20039;-82
2022/08/01 07:32:56;;;;;;;12.65;2.70;;;17.70;99.90;;;;;;4958544;28;20042;-84
2022/08/01 07:35:22;;;;;;;8.60;2.53;;;17.90;99.90;;;;;;4958693;28;20043;-83
2022/08/01 07:37:47;;;;;;;6.82;2.30;;;18.00;99.90;;;;;;4942631;28;20031;-82
2022/08/01 07:40:14;;;;;;;9.65;2.70;;;18.00;99.90;;;;;;4958490;28;20070;-83
2022/08/01 07:42:43;;;;;;;9.68;2.40;;;18.10;99.90;;;;;;4942396;28;20505;-83
2022/08/01 07:45:09;;;;;;;6.70;2.15;;;18.10;99.90;;;;;;4958497;28;20046;-83
2022/08/01 07:47:35;;;;;;;9.75;2.47;;;18.20;99.90;;;;;;4958335;28;20495;-82
2022/08/01 07:50:02;;;;;;;6.88;2.55;;;18.20;99.90;;;;;;4958381;28;20074;-83
2022/08/01 07:52:27;;;;;;;7.70;2.40;;;18.20;99.90;;;;;;4942292;28;20034;-85
2022/08/01 07:54:53;;;;;;;7.43;2.15;;;18.20;99.90;;;;;;4942269;28;20041;-83
2022/08/01 07:57:19;;;;;;;8.48;2.47;;;18.20;99.90;;;;;;4941949;28;20121;-83
2022/08/01 07:59:45;;;;;;;10.23;2.58;;;18.30;99.90;;;;;;4942565;28;20100;-83
2022/08/01 08:02:10;;;;;;;10.27;2.30;;;18.30;99.90;;;;;;4941953;28;20047;-83
2022/08/01 08:04:36;;;;;;;11.15;2.30;;;18.30;99.90;;;;;;4941978;28;20042;-83
2022/08/01 08:07:02;;;;;;;7.30;2.03;;;18.40;99.90;;;;;;4942143;28;20503;-85
2022/08/01 08:09:28;;;;;;;6.07;1.70;;;18.50;99.90;;;;;;4942139;28;20042;-84
2022/08/01 08:11:54;;;;;;;7.53;2.20;;;18.60;99.90;;;;;;4941848;28;20051;-82
2022/08/01 08:14:22;;;;;;;9.95;2.60;;;18.70;99.90;;;;;;4942340;28;20097;-82
2022/08/01 08:16:48;;;;;;;7.07;2.13;;;18.80;99.90;;;;;;4941790;28;20134;-82
2022/08/01 08:19:14;;;;;;;8.68;2.55;;;19.00;99.90;;;;;;4941581;28;20489;-82
2022/08/01 08:21:39;;;;;;;9.25;1.98;;;19.30;99.90;;;;;;4957217;28;20454;-82
2022/08/01 08:24:22;;;;;;;9.88;2.15;;;19.60;99.90;;;;;;4942048;28;20061;-83
2022/08/01 08:26:53;;;;;;;6.43;2.20;;;19.80;99.90;;;;;;4941580;28;20054;-82
2022/08/01 08:29:20;;;;;;;7.43;1.58;;;19.90;99.90;;;;;;4957518;28;20062;-83
2022/08/01 08:31:46;;;;;;;8.20;1.90;;;20.00;99.90;;;;;;4957559;28;20137;-83
2022/08/01 08:34:12;;;;;;;5.90;1.60;;;20.00;99.90;;;;;;4941457;28;20129;-83
2022/08/01 08:36:38;;;;;;;6.22;1.42;;;20.00;99.90;;;;;;4957452;28;20037;-83
2022/08/01 08:39:04;;;;;;;8.82;2.22;;;19.90;99.90;;;;;;4941368;28;20031;-82
2022/08/01 08:41:31;;;;;;;8.20;1.90;;;20.00;99.90;;;;;;4957451;28;20042;-83
2022/08/01 08:44:00;;;;;;;8.05;1.60;;;20.20;99.90;;;;;;4941142;28;20038;-83
2022/08/01 08:46:27;;;;;;;7.22;1.80;;;20.40;99.90;;;;;;4941472;28;20475;-84
2022/08/01 08:48:54;;;;;;;6.28;1.55;;;20.40;99.90;;;;;;4956923;28;20042;-83
2022/08/01 08:51:23;;;;;;;7.13;2.15;;;20.40;99.90;;;;;;4957464;28;20049;-83
2022/08/01 08:53:51;;;;;;;5.38;1.65;;;20.40;99.90;;;;;;4940941;28;20038;-82
2022/08/01 08:56:18;;;;;;;8.32;2.05;;;20.40;99.90;;;;;;4941022;28;20086;-83
2022/08/01 08:58:45;;;;;;;5.00;1.77;;;20.20;99.90;;;;;;4940977;28;20061;-83
2022/08/01 09:01:12;;;;;;;5.25;1.38;;;20.10;99.90;;;;;;4940902;28;20035;-83
2022/08/01 09:03:38;;;;;;;7.25;1.63;;;20.10;99.90;;;;;;4940885;28;20088;-82
2022/08/01 09:06:04;;;;;;;8.82;2.10;;;20.00;99.90;;;;;;4940805;28;20046;-83
2022/08/01 09:08:30;;;;;;;7.60;2.17;;;20.00;99.90;;;;;;4941020;28;20043;-84
2022/08/01 09:10:56;;;;;;;7.15;1.83;;;19.90;99.90;;;;;;4940764;28;20042;-83
2022/08/01 09:13:22;;;;;;;7.35;1.77;;;19.80;99.90;;;;;;4940669;28;20328;-82
2022/08/01 09:15:56;;;;;;;5.78;1.52;;;19.60;99.90;;;;;;4940922;28;20039;-82
2022/08/01 09:18:36;;;;;;;7.03;1.58;;;19.60;99.90;;;;;;4940717;28;20443;-81
2022/08/01 09:21:09;;;;;;;5.68;1.50;;;19.60;99.90;;;;;;4940539;28;20165;-81
2022/08/01 09:23:42;;;;;;;8.93;2.03;;;20.00;99.90;;;;;;4956284;28;20050;-82
2022/08/01 09:26:18;;;;;;;5.80;1.60;;;20.50;99.90;;;;;;4956480;28;20051;-83
2022/08/01 09:28:46;;;;;;;5.35;1.30;;;20.80;99.90;;;;;;4940553;28;20042;-83
2022/08/01 09:31:14;;;;;;;6.18;1.55;;;21.20;99.90;;;;;;4956388;28;20043;-83
2022/08/01 09:33:50;;;;;;;7.57;1.50;;;21.50;99.90;;;;;;4939458;28;20062;-83
2022/08/01 09:36:15;;;;;;;7.57;2.33;;;22.00;99.90;;;;;;4940491;28;20199;-83
2022/08/01 09:38:41;;;;;;;4.93;1.40;;;22.30;99.90;;;;;;4940242;28;20125;-83
2022/08/01 09:41:07;;;;;;;8.18;1.38;;;22.50;99.90;;;;;;4940426;28;20067;-82
2022/08/01 09:43:33;;;;;;;8.15;1.50;;;22.90;99.90;;;;;;4940356;28;20771;-84
2022/08/01 09:46:04;;;;;;;7.43;1.70;;;23.00;99.90;;;;;;4956216;28;20035;-82
2022/08/01 09:48:31;;;;;;;5.78;1.48;;;23.10;99.90;;;;;;4939995;28;20515;-82
2022/08/01 09:50:58;;;;;;;4.47;1.35;;;23.40;99.90;;;;;;4940262;28;20045;-82
2022/08/01 09:53:24;;;;;;;5.13;2.00;;;23.60;99.90;;;;;;4955938;28;20054;-82
2022/08/01 09:55:52;;;;;;;7.00;1.52;;;23.60;99.90;;;;;;4956219;28;20035;-82
2022/08/01 09:58:19;;;;;;;4.72;1.50;;;23.60;99.90;;;;;;4940065;28;20512;-82
2022/08/01 10:01:00;;;;;;;3.15;1.30;;;23.60;99.90;;;;;;4956014;28;20117;-81
2022/08/01 10:03:29;;;;;;;4.00;1.30;;;23.60;99.90;;;;;;4956105;28;20065;-81
2022/08/01 10:05:54;;;;;;;3.97;1.30;;;23.50;99.90;;;;;;4955966;28;20097;-82
2022/08/01 10:08:24;;;;;;;4.28;1.13;;;23.40;99.90;;;;;;4939896;28;20464;-82
2022/08/01 10:11:11;;;;;;;3.40;1.10;;;23.30;99.90;;;;;;4939982;28;20035;-82
2022/08/01 10:13:37;;;;;;;6.10;1.60;;;23.20;99.90;;;;;;4939688;28;20093;-82
2022/08/01 10:16:05;;;;;;;5.60;1.50;;;23.10;99.90;;;;;;4940131;28;20043;-82
2022/08/01 10:18:33;;;;;;;6.55;1.38;;;23.10;99.90;;;;;;4939701;28;20043;-82
2022/08/01 10:21:01;;;;;;;6.28;1.50;;;23.30;99.90;;;;;;4955950;28;20507;-82
2022/08/01 10:23:28;;;;;;;3.72;1.40;;;23.20;99.90;;;;;;4939829;28;20050;-82
2022/08/01 10:25:55;;;;;;;5.88;1.60;;;23.10;99.90;;;;;;4939910;28;20487;-82
2022/08/01 10:28:22;;;;;;;4.95;1.30;;;23.20;99.90;;;;;;4939414;28;20054;-84
2022/08/01 10:30:48;;;;;;;3.25;1.20;;;23.20;99.90;;;;;;4955997;28;20051;-83
2022/08/01 10:33:15;;;;;;;5.45;1.38;;;23.10;99.90;;;;;;4955448;28;20077;-82
2022/08/01 10:35:41;;;;;;;3.50;1.00;;;22.80;99.90;;;;;;4955601;28;20041;-82
2022/08/01 10:38:07;;;;;;;3.58;1.52;;;22.70;99.90;;;;;;4955345;28;20042;-82
2022/08/01 10:40:35;;;;;;;2.78;1.08;;;22.70;99.90;;;;;;4939907;28;20043;-82
2022/08/01 10:43:01;;;;;;;4.28;1.10;;;22.80;99.90;;;;;;4955753;28;20050;-82
2022/08/01 10:45:27;;;;;;;3.95;1.20;;;22.90;99.90;;;;;;4942252;28;20058;-82
2022/08/01 10:48:41;;;;;;;3.35;1.10;;;23.10;99.90;;;;;;4959040;28;20050;-82
2022/08/01 10:51:07;;;;;;;4.53;1.17;;;23.30;99.90;;;;;;4938198;28;20061;-83
2022/08/01 10:53:33;;;;;;;5.03;1.10;;;23.40;99.90;;;;;;4943256;28;20039;-83
2022/08/01 10:56:03;;;;;;;3.08;1.20;;;23.50;99.90;;;;;;4943189;28;20089;-82
2022/08/01 10:58:37;;;;;;;5.40;1.23;;;23.60;99.90;;;;;;4942909;28;20030;-82
2022/08/01 11:01:28;;;;;;;4.05;0.90;;;23.70;99.90;;;;;;4943414;28;20419;-82
2022/08/01 11:04:09;;;;;;;3.28;1.13;;;23.90;99.90;;;;;;4943390;28;20411;-81
2022/08/01 11:06:45;;;;;;;4.32;1.08;;;23.90;99.90;;;;;;4958975;28;20100;-82
2022/08/01 11:09:13;;;;;;;3.42;1.35;;;24.10;99.90;;;;;;4958910;28;20054;-82
2022/08/01 11:11:58;;;;;;;3.20;0.90;;;24.40;99.90;;;;;;4943061;28;20049;-83
2022/08/01 11:14:23;;;;;;;4.28;1.17;;;24.70;96.60;;;;;;4942866;28;20086;-85
2022/08/01 11:16:49;;;;;;;4.55;1.10;;;24.60;98.10;;;;;;4943242;28;20043;-83
2022/08/01 11:19:14;;;;;;;6.78;1.27;;;24.40;99.90;;;;;;4942893;28;20118;-82
2022/08/01 11:21:52;;;;;;;3.55;1.42;;;24.30;99.90;;;;;;4958839;28;20039;-82
2022/08/01 11:24:46;;;;;;;1.85;0.88;;;24.30;99.90;;;;;;4943190;28;20039;-82
2022/08/01 11:27:23;;;;;;;4.05;1.08;;;24.30;92.20;;;;;;4958424;28;20038;-82
2022/08/01 11:30:08;;;;;;;4.00;0.80;;;23.90;91.70;;;;;;4958834;28;20038;-83
2022/08/01 11:32:45;;;;;;;2.60;0.80;;;23.60;93.70;;;;;;4942663;28;20562;-83
2022/08/01 11:35:11;;;;;;;4.63;1.23;;;23.40;91.80;;;;;;4942597;28;20562;-82
2022/08/01 11:37:37;;;;;;;3.72;1.00;;;23.20;94.70;;;;;;4942879;28;20039;-82
2022/08/01 11:40:24;;;;;;;2.83;1.00;;;23.20;99.90;;;;;;4958672;28;20038;-81
2022/08/01 11:43:11;;;;;;;6.50;1.20;;;23.40;97.90;;;;;;4942406;28;20420;-81
2022/08/01 11:45:55;;;;;;;4.45;1.30;;;23.50;99.90;;;;;;4958283;28;20105;-81
2022/08/01 11:48:25;;;;;;;4.10;1.08;;;23.60;99.90;;;;;;4958105;28;20042;-81
2022/08/01 11:50:52;;;;;;;3.47;1.00;;;23.70;96.20;;;;;;4958706;28;20085;-82
2022/08/01 11:53:19;;;;;;;4.35;1.10;;;23.70;93.50;;;;;;4942152;28;20109;-82
2022/08/01 11:55:54;;;;;;;4.43;1.10;;;23.60;95.10;;;;;;4957690;28;20388;-82
2022/08/01 11:58:25;;;;;;;5.63;1.08;;;23.60;97.40;;;;;;4958155;28;20038;-82
2022/08/01 12:00:56;;;;;;;4.57;1.15;;;23.60;98.10;;;;;;4958418;28;20042;-81
2022/08/01 12:03:31;;;;;;;4.82;1.00;;;23.60;99.90;;;;;;4942560;28;20511;-82
2022/08/01 12:05:57;;;;;;;5.40;1.00;;;23.70;93.10;;;;;;4958049;28;20057;-82
2022/08/01 12:08:36;;;;;;;4.85;1.52;;;23.70;99.90;;;;;;4958083;28;20125;-83
2022/08/01 12:11:03;;;;;;;4.75;1.00;;;23.60;91.90;;;;;;4958261;28;20411;-82
2022/08/01 12:13:40;;;;;;;2.17;0.80;;;23.30;91.50;;;;;;4941866;28;20129;-82
2022/08/01 12:16:10;;;;;;;2.55;0.88;;;23.00;91.30;;;;;;4957886;28;20042;-82
2022/08/01 12:18:43;;;;;;;2.92;1.08;;;22.70;95.80;;;;;;4957817;28;20105;-82
2022/08/01 12:21:08;;;;;;;2.28;0.80;;;22.60;95.20;;;;;;4941909;28;20093;-83
2022/08/01 12:23:34;;;;;;;3.08;1.15;;;22.60;89.20;;;;;;4957694;28;20050;-82
2022/08/01 12:26:01;;;;;;;4.07;1.30;;;22.70;90.00;;;;;;4958063;28;20380;-82
2022/08/01 12:28:27;;;;;;;2.78;0.73;;;22.90;95.50;;;;;;4957443;28;20066;-82
2022/08/01 12:30:52;;;;;;;3.17;1.40;;;23.20;97.40;;;;;;4957655;28;20047;-82
2022/08/01 12:33:20;;;;;;;5.28;1.15;;;23.50;95.40;;;;;;4957426;28;20046;-82
2022/08/01 12:35:46;;;;;;;3.05;0.90;;;23.90;99.20;;;;;;4957667;28;20038;-82
2022/08/01 12:38:18;;;;;;;4.82;1.00;;;24.30;99.90;;;;;;4957407;28;20042;-83
2022/08/01 12:40:46;;;;;;;2.42;1.05;;;24.60;96.10;;;;;;4941462;28;20545;-83
2022/08/01 12:43:19;;;;;;;6.43;1.08;;;24.70;92.40;;;;;;4941592;28;20376;-82
2022/08/01 12:45:48;;;;;;;2.33;1.05;;;24.70;87.80;;;;;;4941353;28;20053;-82
2022/08/01 12:48:17;;;;;;;4.05;0.90;;;24.60;86.30;;;;;;4941327;28;20043;-82
2022/08/01 12:50:48;;;;;;;3.50;0.90;;;24.10;78.40;;;;;;4941512;28;20051;-81
2022/08/01 12:53:15;;;;;;;2.13;1.08;;;23.60;84.10;;;;;;4957310;28;20138;-83
2022/08/01 12:55:49;;;;;;;3.30;0.68;;;23.40;82.80;;;;;;4957064;28;20035;-83